Time;durP1;ratioP1;P1;durP2;ratioP2;P2;SDS_P1;SDS_P2;PMS_P1;PMS_P2;Temp;Humidity;BMP_temperature;BMP_pressure;BME280_temperature;BME280_humidity;BME280_pressure;Samples;Min_cycle;Max_cycle;Signal;HPM_P1;HPM_P2
2021/12/10 00:01:04;;;;;;;;;;;4.20;95.60;;;;;;5005934;28;19953;-74
2021/12/10 00:03:33;;;;;;;;;;;4.20;95.60;;;;;;5006167;28;19925;-75
2021/12/10 00:06:01;;;;;;;;;;;4.20;95.60;;;;;;5007079;28;19925;-74
2021/12/10 00:08:30;;;;;;;;;;;4.20;95.60;;;;;;5005399;28;19932;-73
2021/12/10 00:10:57;;;;;;;;;;;4.20;95.60;;;;;;5010834;28;19925;-74
2021/12/10 00:13:24;;;;;;;;;;;4.20;95.60;;;;;;5004654;28;19952;-75
2021/12/10 00:15:54;;;;;;;;;;;4.10;95.50;;;;;;5003500;28;19928;-74
2021/12/10 00:18:21;;;;;;;;;;;4.10;95.50;;;;;;5005892;28;19957;-74
2021/12/10 00:20:56;;;;;;;;;;;4.10;95.60;;;;;;5005561;28;19925;-74
2021/12/10 00:23:23;;;;;;;;;;;4.10;95.60;;;;;;5006514;28;20012;-74
2021/12/10 00:25:51;;;;;;;;;;;4.10;95.60;;;;;;5007005;28;20419;-74
2021/12/10 00:28:22;;;;;;;;;;;4.10;95.60;;;;;;5005902;28;19937;-74
2021/12/10 00:31:00;;;;;;;;;;;4.00;95.50;;;;;;5003833;28;19921;-74
2021/12/10 00:33:28;;;;;;;;;;;4.10;95.60;;;;;;4999344;28;20423;-74
2021/12/10 00:35:56;;;;;;;;;;;4.00;95.50;;;;;;5005819;28;20388;-74
2021/12/10 00:38:24;;;;;;;;;;;4.00;95.50;;;;;;5006323;28;19933;-75
2021/12/10 00:40:52;;;;;;;;;;;4.00;95.50;;;;;;5004398;28;19925;-74
2021/12/10 00:43:18;;;;;;;;;;;4.00;95.50;;;;;;5005666;28;19921;-75
2021/12/10 00:45:45;;;;;;;;;;;4.00;95.50;;;;;;5005413;28;20289;-74
2021/12/10 00:48:11;;;;;;;;;;;4.00;95.60;;;;;;5008097;28;20276;-74
2021/12/10 00:50:40;;;;;;;;;;;4.00;95.50;;;;;;5005414;28;19925;-73
2021/12/10 00:53:08;;;;;;;;;;;3.90;95.50;;;;;;5005955;28;19976;-75
2021/12/10 00:55:35;;;;;;;;;;;3.90;95.50;;;;;;5003055;28;20218;-74
2021/12/10 00:58:02;;;;;;;;;;;3.90;95.50;;;;;;5003761;28;20046;-74
2021/12/10 01:00:37;;;;;;;;;;;3.90;95.50;;;;;;4999887;28;19926;-74
2021/12/10 01:03:04;;;;;;;;;;;3.90;95.50;;;;;;5004260;28;19983;-74
2021/12/10 01:05:32;;;;;;;;;;;3.80;95.50;;;;;;5006455;28;19963;-75
2021/12/10 01:07:59;;;;;;;;;;;3.80;95.60;;;;;;5007156;28;19932;-72
2021/12/10 01:10:28;;;;;;;;;;;3.80;95.60;;;;;;5004071;28;19932;-74
2021/12/10 01:12:56;;;;;;;;;;;3.80;95.70;;;;;;5006648;28;19929;-75
2021/12/10 01:23:49;;;;;;;;;;;3.70;95.90;;;;;;5002557;28;19928;-74
2021/12/10 01:26:36;;;;;;;;;;;3.70;95.90;;;;;;5006032;28;20015;-74
2021/12/10 01:29:03;;;;;;;;;;;3.70;96.00;;;;;;5003604;28;19960;-74
2021/12/10 01:31:30;;;;;;;;;;;3.70;96.00;;;;;;4999061;28;19948;-75
2021/12/10 01:33:56;;;;;;;;;;;3.70;96.00;;;;;;4997420;28;19928;-74
2021/12/10 01:36:23;;;;;;;;;;;3.60;96.00;;;;;;4997804;28;19926;-73
2021/12/10 01:38:52;;;;;;;;;;;3.60;96.10;;;;;;5004068;28;19925;-74
2021/12/10 01:41:23;;;;;;;;;;;3.60;96.10;;;;;;5003299;28;19935;-73
2021/12/10 01:43:52;;;;;;;;;;;3.60;96.10;;;;;;5006595;28;19925;-74
2021/12/10 01:46:25;;;;;;;;;;;3.60;96.20;;;;;;5002679;28;19937;-75
2021/12/10 01:48:54;;;;;;;;;;;3.60;96.20;;;;;;5006736;28;19995;-75
2021/12/10 01:51:23;;;;;;;;;;;3.50;96.20;;;;;;5001564;28;20423;-75
2021/12/10 01:53:51;;;;;;;;;;;3.50;96.20;;;;;;4999160;28;19925;-74
2021/12/10 01:56:20;;;;;;;;;;;3.50;96.20;;;;;;4996299;28;19929;-75
2021/12/10 01:58:49;;;;;;;;;;;3.50;96.20;;;;;;4993184;28;19929;-75
2021/12/10 02:01:16;;;;;;;;;;;3.40;96.20;;;;;;4993910;28;19925;-74
2021/12/10 02:03:44;;;;;;;;;;;3.40;96.20;;;;;;4993484;28;19929;-74
2021/12/10 02:06:10;;;;;;;;;;;3.40;96.20;;;;;;4993443;28;19937;-73
2021/12/10 02:08:38;;;;;;;;;;;3.40;96.30;;;;;;4995186;28;19925;-74
2021/12/10 02:11:05;;;;;;;;;;;3.40;96.30;;;;;;4993664;28;19930;-73
2021/12/10 02:13:32;;;;;;;;;;;3.40;96.30;;;;;;5003399;28;19932;-74
2021/12/10 02:16:00;;;;;;;;;;;3.30;96.30;;;;;;5002944;28;19925;-73
2021/12/10 02:18:26;;;;;;;;;;;3.30;96.30;;;;;;5005695;28;19922;-74
2021/12/10 02:21:13;;;;;;;;;;;3.30;96.30;;;;;;5004198;28;20408;-73
2021/12/10 02:23:40;;;;;;;;;;;3.30;96.30;;;;;;5004957;28;19932;-74
2021/12/10 02:26:08;;;;;;;;;;;3.30;96.30;;;;;;5001966;28;19926;-74
2021/12/10 02:28:35;;;;;;;;;;;3.20;96.30;;;;;;5004648;28;19929;-74
2021/12/10 02:31:03;;;;;;;;;;;3.20;96.30;;;;;;5000764;28;19947;-74
2021/12/10 02:33:29;;;;;;;;;;;3.20;96.30;;;;;;5004774;28;20401;-73
2021/12/10 02:35:58;;;;;;;;;;;3.20;96.30;;;;;;5004760;28;19933;-74
2021/12/10 02:38:24;;;;;;;;;;;3.20;96.40;;;;;;5002212;28;19925;-74
2021/12/10 02:40:54;;;;;;;;;;;3.10;96.30;;;;;;5004026;28;20356;-74
2021/12/10 02:43:22;;;;;;;;;;;3.10;96.30;;;;;;5005590;28;20274;-73
2021/12/10 02:45:50;;;;;;;;;;;3.10;96.40;;;;;;5001610;28;19952;-74
2021/12/10 02:48:16;;;;;;;;;;;3.10;96.40;;;;;;5004480;28;19925;-74
2021/12/10 02:50:44;;;;;;;;;;;3.10;96.40;;;;;;5004797;28;19921;-74
2021/12/10 02:53:14;;;;;;;;;;;3.00;96.30;;;;;;5007142;28;20377;-73
2021/12/10 02:55:41;;;;;;;;;;;3.00;96.40;;;;;;5003060;28;19947;-73
2021/12/10 02:58:10;;;;;;;;;;;3.00;96.40;;;;;;5007905;28;19925;-73
2021/12/10 03:00:39;;;;;;;;;;;3.00;96.40;;;;;;5001190;28;20472;-73
2021/12/10 03:03:06;;;;;;;;;;;3.00;96.40;;;;;;5007115;28;19930;-73
2021/12/10 03:05:33;;;;;;;;;;;2.90;96.40;;;;;;5006748;28;19926;-73
2021/12/10 03:07:59;;;;;;;;;;;2.90;96.40;;;;;;5007716;28;19921;-72
2021/12/10 03:10:29;;;;;;;;;;;2.90;96.40;;;;;;5005484;28;19934;-74
2021/12/10 03:12:56;;;;;;;;;;;2.90;96.40;;;;;;5001897;28;19925;-73
2021/12/10 03:15:23;;;;;;;;;;;2.90;96.40;;;;;;5005665;28;19934;-74
2021/12/10 03:17:50;;;;;;;;;;;2.90;96.40;;;;;;5006104;28;20302;-74
2021/12/10 03:20:19;;;;;;;;;;;2.80;96.40;;;;;;5011762;28;19933;-74
2021/12/10 03:22:46;;;;;;;;;;;2.80;96.40;;;;;;5007271;28;20395;-74
2021/12/10 03:25:13;;;;;;;;;;;2.80;96.50;;;;;;5010518;28;19929;-75
2021/12/10 03:27:42;;;;;;;;;;;2.80;96.50;;;;;;5008708;28;20015;-73
2021/12/10 03:30:10;;;;;;;;;;;2.80;96.50;;;;;;5007237;28;20377;-74
2021/12/10 03:32:39;;;;;;;;;;;2.80;96.50;;;;;;5006430;28;19925;-73
2021/12/10 03:35:09;;;;;;;;;;;2.70;96.50;;;;;;5008819;28;19936;-74
2021/12/10 03:37:35;;;;;;;;;;;2.70;96.80;;;;;;5008453;28;19956;-74
2021/12/10 03:40:03;;;;;;;;;;;2.70;96.50;;;;;;5007563;28;19932;-74
2021/12/10 03:42:30;;;;;;;;;;;2.70;96.50;;;;;;5007849;28;19921;-74
2021/12/10 03:44:58;;;;;;;;;;;2.70;96.50;;;;;;5005944;28;19964;-74
2021/12/10 03:47:24;;;;;;;;;;;2.70;96.50;;;;;;5006707;28;20408;-74
2021/12/10 03:49:51;;;;;;;;;;;2.60;96.50;;;;;;5005876;28;20385;-74
2021/12/10 03:52:18;;;;;;;;;;;2.60;96.50;;;;;;5007237;28;19929;-74
2021/12/10 03:54:44;;;;;;;;;;;2.60;96.50;;;;;;5007009;28;19925;-74
2021/12/10 03:57:11;;;;;;;;;;;2.60;96.50;;;;;;5007976;28;19926;-74
2021/12/10 03:59:38;;;;;;;;;;;2.60;96.50;;;;;;5005940;28;19929;-74
2021/12/10 04:02:07;;;;;;;;;;;2.50;96.40;;;;;;5006770;28;19921;-74
2021/12/10 04:04:36;;;;;;;;;;;2.50;96.50;;;;;;5008009;28;19933;-73
2021/12/10 04:07:05;;;;;;;;;;;2.50;96.50;;;;;;5008050;28;19932;-74
2021/12/10 04:09:32;;;;;;;;;;;2.50;96.50;;;;;;5009671;28;19975;-74
2021/12/10 04:11:58;;;;;;;;;;;2.50;96.50;;;;;;5005023;28;19929;-72
2021/12/10 04:14:25;;;;;;;;;;;2.50;96.50;;;;;;5010644;28;19926;-74
2021/12/10 04:16:56;;;;;;;;;;;2.50;96.50;;;;;;5009150;28;19929;-74
2021/12/10 04:19:24;;;;;;;;;;;2.40;96.50;;;;;;5013297;28;19925;-73
2021/12/10 04:21:52;;;;;;;;;;;2.40;96.50;;;;;;5008005;28;20381;-73
2021/12/10 04:24:22;;;;;;;;;;;2.40;96.50;;;;;;5010261;28;20020;-74
2021/12/10 04:26:49;;;;;;;;;;;2.40;96.50;;;;;;5008216;28;21081;-73
2021/12/10 04:29:19;;;;;;;;;;;2.40;96.50;;;;;;5008235;28;20460;-74
2021/12/10 04:31:46;;;;;;;;;;;2.30;96.50;;;;;;5006728;28;19940;-74
2021/12/10 04:34:12;;;;;;;;;;;2.30;96.50;;;;;;5007169;28;19926;-74
2021/12/10 04:36:40;;;;;;;;;;;2.30;96.50;;;;;;5006524;28;19936;-74
2021/12/10 04:39:07;;;;;;;;;;;2.30;96.50;;;;;;5006285;28;19932;-74
2021/12/10 04:41:34;;;;;;;;;;;2.30;96.50;;;;;;5007031;28;19929;-72
2021/12/10 04:44:00;;;;;;;;;;;2.30;96.60;;;;;;5007533;28;20393;-73
2021/12/10 04:46:27;;;;;;;;;;;2.20;96.50;;;;;;5004951;28;20304;-74
2021/12/10 04:48:55;;;;;;;;;;;2.20;96.50;;;;;;5007564;28;20367;-73
2021/12/10 04:51:23;;;;;;;;;;;2.20;96.50;;;;;;5008023;28;20387;-74
2021/12/10 04:53:51;;;;;;;;;;;2.20;96.50;;;;;;5007493;28;20566;-74
2021/12/10 04:56:18;;;;;;;;;;;2.20;96.50;;;;;;5006710;28;19929;-73
2021/12/10 04:58:45;;;;;;;;;;;2.20;96.50;;;;;;5007584;28;19928;-73
2021/12/10 05:01:11;;;;;;;;;;;2.20;96.50;;;;;;5012536;28;19932;-73
2021/12/10 05:03:38;;;;;;;;;;;2.20;96.50;;;;;;5003428;28;19932;-73
2021/12/10 05:06:05;;;;;;;;;;;2.10;96.80;;;;;;5008693;28;19925;-73
2021/12/10 05:08:32;;;;;;;;;;;2.10;96.50;;;;;;5005916;28;19932;-75
2021/12/10 05:11:01;;;;;;;;;;;2.10;96.50;;;;;;5007306;28;20345;-75
2021/12/10 05:13:28;;;;;;;;;;;2.10;96.50;;;;;;5001277;28;19926;-75
2021/12/10 05:15:58;;;;;;;;;;;2.10;96.50;;;;;;5008378;28;19925;-75
2021/12/10 05:18:25;;;;;;;;;;;2.10;96.50;;;;;;5006650;28;19935;-74
2021/12/10 05:20:52;;;;;;;;;;;2.00;96.50;;;;;;5007345;28;19925;-75
2021/12/10 05:23:19;;;;;;;;;;;2.00;96.50;;;;;;5005865;28;19929;-73
2021/12/10 05:25:46;;;;;;;;;;;2.00;96.50;;;;;;5002293;28;19995;-74
2021/12/10 05:28:14;;;;;;;;;;;2.00;96.50;;;;;;5006976;28;19936;-74
2021/12/10 05:30:41;;;;;;;;;;;2.00;96.50;;;;;;5006981;28;19952;-74
2021/12/10 05:33:14;;;;;;;;;;;2.00;96.50;;;;;;5007117;28;19975;-74
2021/12/10 05:35:41;;;;;;;;;;;2.00;96.50;;;;;;5007355;28;19921;-74
2021/12/10 05:38:07;;;;;;;;;;;2.00;96.50;;;;;;5008263;28;19929;-75
2021/12/10 05:40:34;;;;;;;;;;;2.00;96.50;;;;;;5005395;28;19929;-74
2021/12/10 05:43:00;;;;;;;;;;;1.90;96.50;;;;;;5005134;28;19929;-76
2021/12/10 05:45:28;;;;;;;;;;;1.90;96.50;;;;;;5004995;28;19929;-74
2021/12/10 05:47:55;;;;;;;;;;;1.90;96.50;;;;;;5002296;28;20293;-74
2021/12/10 05:50:23;;;;;;;;;;;1.90;96.50;;;;;;5005491;28;20393;-74
2021/12/10 05:52:50;;;;;;;;;;;1.90;96.50;;;;;;5003481;28;19968;-74
2021/12/10 05:55:16;;;;;;;;;;;1.90;96.80;;;;;;5004479;28;20005;-75
2021/12/10 05:57:43;;;;;;;;;;;1.90;96.50;;;;;;5003433;28;19933;-74
2021/12/10 06:00:11;;;;;;;;;;;1.80;96.50;;;;;;5000194;28;19933;-74
2021/12/10 06:02:39;;;;;;;;;;;1.80;96.50;;;;;;5003002;28;19932;-74
2021/12/10 06:05:07;;;;;;;;;;;1.80;96.50;;;;;;5001583;28;19960;-74
2021/12/10 06:07:34;;;;;;;;;;;1.80;96.50;;;;;;5004088;28;19965;-74
2021/12/10 06:10:00;;;;;;;;;;;1.70;96.50;;;;;;5005430;28;19922;-75
2021/12/10 06:12:27;;;;;;;;;;;1.80;96.50;;;;;;5005217;28;19936;-74
2021/12/10 06:14:53;;;;;;;;;;;1.80;96.50;;;;;;5002913;28;19933;-75
2021/12/10 06:17:20;;;;;;;;;;;1.80;96.50;;;;;;5003924;28;19937;-74
2021/12/10 06:19:48;;;;;;;;;;;1.80;96.50;;;;;;5006541;28;19928;-75
2021/12/10 06:22:14;;;;;;;;;;;1.80;96.50;;;;;;5004907;28;19932;-75
2021/12/10 06:24:41;;;;;;;;;;;1.80;96.50;;;;;;5003128;28;20353;-75
2021/12/10 06:27:07;;;;;;;;;;;1.70;96.50;;;;;;5004162;28;19932;-74
2021/12/10 06:29:36;;;;;;;;;;;1.70;96.50;;;;;;5007547;28;20641;-74
2021/12/10 06:32:03;;;;;;;;;;;1.70;96.50;;;;;;5006377;28;19937;-74
2021/12/10 06:34:29;;;;;;;;;;;1.70;96.50;;;;;;5004822;28;19926;-74
2021/12/10 06:36:57;;;;;;;;;;;1.70;96.00;;;;;;5006126;28;19925;-75
2021/12/10 06:39:24;;;;;;;;;;;1.60;95.10;;;;;;5009251;28;19929;-75
2021/12/10 06:41:51;;;;;;;;;;;1.60;95.20;;;;;;5010694;28;19933;-75
2021/12/10 06:44:17;;;;;;;;;;;1.50;95.40;;;;;;5012281;28;19960;-76
2021/12/10 06:46:44;;;;;;;;;;;1.50;95.50;;;;;;5010221;28;19928;-74
2021/12/10 06:49:11;;;;;;;;;;;1.50;96.00;;;;;;5011580;28;19921;-74
2021/12/10 06:51:38;;;;;;;;;;;1.50;95.80;;;;;;5011254;28;20439;-75
2021/12/10 06:54:06;;;;;;;;;;;1.50;95.80;;;;;;5009270;28;19925;-74
2021/12/10 06:56:34;;;;;;;;;;;1.60;95.90;;;;;;5010147;28;19926;-75
2021/12/10 06:59:01;;;;;;;;;;;1.60;96.00;;;;;;5011630;28;20419;-75
2021/12/10 07:01:29;;;;;;;;;;;1.60;96.00;;;;;;5010586;28;20014;-75
2021/12/10 07:03:56;;;;;;;;;;;1.60;96.00;;;;;;5011814;28;19934;-74
2021/12/10 07:06:24;;;;;;;;;;;1.60;96.00;;;;;;5009827;28;19932;-73
2021/12/10 07:08:51;;;;;;;;;;;1.60;96.00;;;;;;5012061;28;19932;-75
2021/12/10 07:11:20;;;;;;;;;;;1.60;96.00;;;;;;5011991;28;20069;-75
2021/12/10 07:13:48;;;;;;;;;;;1.60;96.10;;;;;;5010648;28;19929;-76
2021/12/10 07:16:16;;;;;;;;;;;1.60;96.10;;;;;;5006890;28;19921;-75
2021/12/10 07:18:42;;;;;;;;;;;1.60;96.10;;;;;;5013032;28;20397;-75
2021/12/10 07:21:09;;;;;;;;;;;1.60;96.10;;;;;;5013190;28;19925;-74
2021/12/10 07:23:37;;;;;;;;;;;1.60;96.10;;;;;;5012193;28;19928;-76
2021/12/10 07:26:04;;;;;;;;;;;1.60;96.10;;;;;;5010925;28;19925;-73
2021/12/10 07:28:32;;;;;;;;;;;1.60;96.10;;;;;;5010807;28;20377;-74
2021/12/10 07:30:59;;;;;;;;;;;1.60;96.00;;;;;;5008209;28;19932;-74
2021/12/10 07:33:26;;;;;;;;;;;1.60;96.00;;;;;;5010572;28;19925;-74
2021/12/10 07:35:52;;;;;;;;;;;1.60;96.10;;;;;;5010899;28;19925;-75
2021/12/10 07:38:19;;;;;;;;;;;1.60;96.10;;;;;;5010061;28;19928;-75
2021/12/10 07:40:46;;;;;;;;;;;1.60;96.00;;;;;;5008411;28;19922;-74
2021/12/10 07:43:13;;;;;;;;;;;1.60;96.00;;;;;;5009446;28;19967;-75
2021/12/10 07:45:43;;;;;;;;;;;1.60;96.10;;;;;;5013306;28;19924;-75
2021/12/10 07:48:11;;;;;;;;;;;1.60;96.10;;;;;;5012061;28;19928;-76
2021/12/10 07:50:40;;;;;;;;;;;1.60;96.00;;;;;;5018304;28;19927;-75
2021/12/10 07:53:07;;;;;;;;;;;1.60;96.00;;;;;;5011651;28;19921;-75
2021/12/10 07:55:35;;;;;;;;;;;1.60;96.00;;;;;;5012813;28;19932;-74
2021/12/10 07:58:03;;;;;;;;;;;1.50;96.00;;;;;;5016743;28;20405;-76
2021/12/10 08:00:31;;;;;;;;;;;1.60;96.00;;;;;;5004780;28;20272;-75
2021/12/10 08:02:59;;;;;;;;;;;1.50;96.00;;;;;;5007189;28;19937;-75
2021/12/10 08:05:25;;;;;;;;;;;1.50;96.00;;;;;;5008319;28;19925;-76
2021/12/10 08:07:53;;;;;;;;;;;1.50;96.00;;;;;;5003675;28;19934;-76
2021/12/10 08:10:20;;;;;;;;;;;1.50;96.00;;;;;;5009801;28;19929;-75
2021/12/10 08:12:46;;;;;;;;;;;1.60;96.00;;;;;;5007430;28;19925;-75
2021/12/10 08:15:13;;;;;;;;;;;1.50;95.90;;;;;;5009149;28;19945;-76
2021/12/10 08:17:42;;;;;;;;;;;1.50;96.00;;;;;;5009738;28;20411;-76
2021/12/10 08:20:12;;;;;;;;;;;1.50;96.00;;;;;;5009601;28;19929;-75
2021/12/10 08:22:39;;;;;;;;;;;1.50;96.00;;;;;;5009671;28;20555;-76
2021/12/10 08:25:06;;;;;;;;;;;1.50;95.90;;;;;;5008166;28;19997;-76
2021/12/10 08:27:33;;;;;;;;;;;1.50;96.00;;;;;;5010238;28;19925;-75
2021/12/10 08:30:03;;;;;;;;;;;1.50;96.00;;;;;;5007406;28;19932;-74
2021/12/10 08:32:31;;;;;;;;;;;1.50;95.90;;;;;;5015479;28;19917;-74
2021/12/10 08:34:58;;;;;;;;;;;1.60;96.00;;;;;;5010904;28;19996;-75
2021/12/10 08:37:25;;;;;;;;;;;1.50;96.00;;;;;;5009313;28;19922;-74
2021/12/10 08:39:52;;;;;;;;;;;1.50;96.00;;;;;;5004784;28;19983;-76
2021/12/10 08:42:18;;;;;;;;;;;1.50;95.90;;;;;;5015948;28;19976;-74
2021/12/10 08:44:45;;;;;;;;;;;1.50;95.90;;;;;;5004871;28;19930;-75
2021/12/10 08:47:12;;;;;;;;;;;1.50;96.00;;;;;;5011059;28;19921;-75
2021/12/10 08:49:39;;;;;;;;;;;1.50;96.00;;;;;;5008200;28;20019;-75
2021/12/10 08:52:07;;;;;;;;;;;1.50;95.90;;;;;;5007485;28;19921;-75
2021/12/10 08:54:35;;;;;;;;;;;1.50;96.00;;;;;;5003706;28;19979;-76
2021/12/10 08:57:02;;;;;;;;;;;1.50;95.90;;;;;;5007715;28;20500;-74
2021/12/10 08:59:29;;;;;;;;;;;1.50;95.90;;;;;;5008449;28;19929;-75
2021/12/10 09:01:59;;;;;;;;;;;1.60;96.00;;;;;;5005323;28;19925;-74
2021/12/10 09:04:27;;;;;;;;;;;1.60;96.00;;;;;;5008037;28;19929;-75
2021/12/10 09:06:54;;;;;;;;;;;1.60;96.00;;;;;;5008681;28;19925;-76
2021/12/10 09:09:22;;;;;;;;;;;1.60;96.00;;;;;;5006103;28;19964;-75
2021/12/10 09:11:52;;;;;;;;;;;1.60;96.00;;;;;;5008073;28;20838;-74
2021/12/10 09:14:19;;;;;;;;;;;1.60;96.00;;;;;;5004238;28;19925;-75
2021/12/10 09:16:46;;;;;;;;;;;1.60;96.00;;;;;;5002137;28;20407;-75
2021/12/10 09:19:14;;;;;;;;;;;1.60;96.00;;;;;;5009008;28;20404;-77
2021/12/10 09:21:41;;;;;;;;;;;1.60;96.00;;;;;;5008394;28;19925;-75
2021/12/10 09:24:11;;;;;;;;;;;1.60;96.00;;;;;;4996316;28;19929;-75
2021/12/10 09:26:40;;;;;;;;;;;1.60;96.00;;;;;;4998985;28;19925;-76
2021/12/10 09:29:08;;;;;;;;;;;1.60;95.90;;;;;;5000894;28;19968;-77
2021/12/10 09:31:39;;;;;;;;;;;1.70;96.00;;;;;;5002529;28;19991;-78
2021/12/10 09:34:06;;;;;;;;;;;1.60;95.90;;;;;;5005658;28;19925;-77
2021/12/10 09:36:33;;;;;;;;;;;1.70;95.90;;;;;;5003863;28;19995;-76
2021/12/10 09:39:00;;;;;;;;;;;1.70;95.90;;;;;;4999683;28;20389;-75
2021/12/10 09:41:27;;;;;;;;;;;1.70;95.90;;;;;;5001582;28;19936;-76
2021/12/10 09:43:53;;;;;;;;;;;1.70;95.90;;;;;;5005531;28;19925;-77
2021/12/10 09:46:21;;;;;;;;;;;1.70;95.90;;;;;;5003135;28;19968;-76
2021/12/10 09:48:51;;;;;;;;;;;1.70;95.90;;;;;;5006979;28;19932;-75
2021/12/10 09:51:19;;;;;;;;;;;1.70;95.90;;;;;;5005656;28;20985;-75
2021/12/10 09:53:48;;;;;;;;;;;1.80;95.90;;;;;;5002392;28;19925;-76
2021/12/10 09:56:15;;;;;;;;;;;1.80;95.90;;;;;;4998697;28;19929;-80
2021/12/10 09:58:42;;;;;;;;;;;1.80;95.90;;;;;;5002873;28;19936;-76
2021/12/10 10:01:10;;;;;;;;;;;1.80;95.90;;;;;;4999574;28;19929;-76
2021/12/10 10:03:40;;;;;;;;;;;1.80;95.90;;;;;;5005203;28;19936;-76
2021/12/10 10:06:08;;;;;;;;;;;1.80;95.90;;;;;;5010679;28;20007;-76
2021/12/10 10:08:35;;;;;;;;;;;1.80;95.90;;;;;;5004791;28;19921;-78
2021/12/10 10:11:06;;;;;;;;;;;1.80;95.80;;;;;;5005780;28;20377;-77
2021/12/10 10:13:36;;;;;;;;;;;1.80;95.80;;;;;;5004166;28;19925;-77
2021/12/10 10:16:03;;;;;;;;;;;1.90;95.90;;;;;;4999607;28;19930;-74
2021/12/10 10:18:31;;;;;;;;;;;1.90;95.80;;;;;;5001251;28;19937;-73
2021/12/10 10:21:03;;;;;;;;;;;1.90;95.90;;;;;;5000545;28;19987;-74
2021/12/10 10:23:30;;;;;;;;;;;1.90;95.80;;;;;;5002137;28;19921;-73
2021/12/10 10:25:58;;;;;;;;;;;1.90;95.80;;;;;;4999372;28;20009;-73
2021/12/10 10:28:24;;;;;;;;;;;1.90;95.80;;;;;;5001146;28;19925;-73
2021/12/10 10:30:57;;;;;;;;;;;1.90;95.80;;;;;;4995172;28;20339;-74
2021/12/10 10:33:24;;;;;;;;;;;1.90;95.80;;;;;;5000601;28;19940;-73
2021/12/10 10:35:52;;;;;;;;;;;2.00;95.90;;;;;;5001277;28;20265;-68
2021/12/10 10:38:21;;;;;;;;;;;2.00;95.90;;;;;;5002616;28;19932;-68
2021/12/10 10:40:49;;;;;;;;;;;2.00;95.90;;;;;;5006609;28;20028;-68
2021/12/10 10:43:16;;;;;;;;;;;2.00;95.90;;;;;;5004149;28;19920;-68
2021/12/10 10:45:44;;;;;;;;;;;2.00;95.90;;;;;;4999739;28;19929;-68
2021/12/10 10:48:12;;;;;;;;;;;2.00;95.90;;;;;;5002418;28;19976;-68
2021/12/10 10:50:40;;;;;;;;;;;2.00;96.20;;;;;;5002127;28;20036;-68
2021/12/10 10:53:10;;;;;;;;;;;2.00;95.90;;;;;;5000822;28;20003;-68
2021/12/10 10:55:39;;;;;;;;;;;2.10;95.90;;;;;;5002743;28;19952;-67
2021/12/10 10:58:07;;;;;;;;;;;2.10;95.90;;;;;;5001087;28;19921;-68
2021/12/10 11:00:43;;;;;;;;;;;2.10;95.90;;;;;;4999823;28;20020;-68
2021/12/10 11:03:12;;;;;;;;;;;2.10;95.90;;;;;;4998829;28;19932;-68
2021/12/10 11:05:44;;;;;;;;;;;2.10;95.90;;;;;;4999667;28;20452;-68
2021/12/10 11:08:11;;;;;;;;;;;2.10;95.90;;;;;;5000386;28;19925;-68
2021/12/10 11:10:40;;;;;;;;;;;2.10;95.90;;;;;;5000099;28;19929;-68
2021/12/10 11:13:08;;;;;;;;;;;2.10;95.90;;;;;;5002302;28;19929;-68
2021/12/10 11:15:34;;;;;;;;;;;2.10;95.90;;;;;;5004429;28;19921;-68
2021/12/10 11:18:01;;;;;;;;;;;2.20;95.90;;;;;;5004762;28;19940;-68
2021/12/10 11:20:30;;;;;;;;;;;2.20;95.90;;;;;;5005708;28;19988;-69
2021/12/10 11:22:59;;;;;;;;;;;2.20;95.90;;;;;;5003155;28;19976;-69
2021/12/10 11:25:27;;;;;;;;;;;2.20;95.90;;;;;;5002115;28;19925;-68
2021/12/10 11:28:02;;;;;;;;;;;2.20;95.90;;;;;;5003651;28;19932;-68
2021/12/10 11:30:28;;;;;;;;;;;2.20;95.90;;;;;;5002566;28;20326;-69
2021/12/10 11:33:00;;;;;;;;;;;2.20;95.80;;;;;;5002676;28;19937;-68
2021/12/10 11:35:28;;;;;;;;;;;2.20;95.80;;;;;;5005447;28;19929;-68
2021/12/10 11:37:57;;;;;;;;;;;2.30;95.80;;;;;;5004421;28;19935;-68
2021/12/10 11:40:38;;;;;;;;;;;2.20;95.80;;;;;;5001679;28;19921;-69
2021/12/10 11:43:17;;;;;;;;;;;2.30;95.80;;;;;;5004484;28;19933;-68
2021/12/10 11:45:52;;;;;;;;;;;2.30;95.80;;;;;;5001945;28;19931;-68
2021/12/10 11:48:24;;;;;;;;;;;2.30;95.70;;;;;;5004815;28;20680;-68
2021/12/10 11:50:59;;;;;;;;;;;2.30;95.70;;;;;;5004794;28;19929;-68
2021/12/10 11:53:34;;;;;;;;;;;2.30;95.70;;;;;;5004876;28;19926;-68
2021/12/10 11:56:04;;;;;;;;;;;2.40;95.70;;;;;;5004475;28;19936;-68
2021/12/10 11:58:32;;;;;;;;;;;2.40;95.70;;;;;;5003578;28;19933;-71
2021/12/10 12:00:59;;;;;;;;;;;2.40;95.70;;;;;;5002939;28;19929;-75
2021/12/10 12:03:29;;;;;;;;;;;2.40;95.70;;;;;;5006483;28;19925;-73
2021/12/10 12:05:56;;;;;;;;;;;2.40;95.70;;;;;;5004972;28;19956;-72
2021/12/10 12:08:24;;;;;;;;;;;2.40;95.70;;;;;;5009559;28;19960;-72
2021/12/10 12:10:51;;;;;;;;;;;2.40;95.70;;;;;;5006557;28;20306;-73
2021/12/10 12:13:25;;;;;;;;;;;2.40;95.70;;;;;;5005877;28;20031;-73
2021/12/10 12:15:55;;;;;;;;;;;2.50;95.70;;;;;;5001678;28;19925;-73
2021/12/10 12:18:26;;;;;;;;;;;2.50;95.60;;;;;;5006520;28;19929;-73
2021/12/10 12:20:55;;;;;;;;;;;2.50;95.60;;;;;;5003679;28;19926;-72
2021/12/10 12:26:07;;;;;;;;;;;2.50;95.60;;;;;;4999691;28;19992;-72
2021/12/10 12:28:37;;;;;;;;;;;2.50;95.60;;;;;;5003439;28;19925;-73
2021/12/10 12:31:08;;;;;;;;;;;2.60;95.60;;;;;;5000220;28;19933;-73
2021/12/10 12:33:49;;;;;;;;;;;2.60;95.60;;;;;;5005662;28;19925;-73
2021/12/10 12:36:16;;;;;;;;;;;2.60;95.60;;;;;;5006901;28;19932;-73
2021/12/10 12:38:43;;;;;;;;;;;2.60;95.60;;;;;;5003676;28;19929;-74
2021/12/10 12:41:12;;;;;;;;;;;2.60;95.60;;;;;;5004939;28;19929;-72
2021/12/10 12:43:39;;;;;;;;;;;2.60;95.60;;;;;;5004182;28;19925;-73
2021/12/10 12:46:08;;;;;;;;;;;2.60;95.60;;;;;;4999320;28;19929;-73
2021/12/10 12:48:37;;;;;;;;;;;2.60;95.60;;;;;;5003351;28;19933;-73
2021/12/10 12:51:11;;;;;;;;;;;2.60;95.60;;;;;;5005620;28;19955;-72
2021/12/10 12:53:37;;;;;;;;;;;2.60;95.90;;;;;;5005734;28;20392;-73
2021/12/10 12:56:10;;;;;;;;;;;2.70;95.70;;;;;;5007724;28;19933;-73
2021/12/10 12:58:39;;;;;;;;;;;2.70;95.70;;;;;;4996379;28;20020;-73
2021/12/10 13:01:10;;;;;;;;;;;2.70;95.70;;;;;;5004419;28;19939;-74
2021/12/10 13:03:40;;;;;;;;;;;2.70;95.70;;;;;;5005597;28;20407;-73
2021/12/10 13:06:10;;;;;;;;;;;2.70;95.70;;;;;;5004683;28;20313;-73
2021/12/10 13:08:38;;;;;;;;;;;2.70;95.70;;;;;;5007470;28;19955;-72
2021/12/10 13:11:11;;;;;;;;;;;2.70;95.70;;;;;;5004512;28;20325;-72
2021/12/10 13:13:41;;;;;;;;;;;2.70;95.70;;;;;;5000295;28;19925;-78
2021/12/10 13:16:09;;;;;;;;;;;2.70;95.70;;;;;;5001281;28;19925;-75
2021/12/10 13:18:37;;;;;;;;;;;2.70;95.70;;;;;;5004609;28;20017;-76
2021/12/10 13:21:04;;;;;;;;;;;2.70;95.80;;;;;;5004350;28;19926;-76
2021/12/10 13:23:31;;;;;;;;;;;2.70;95.80;;;;;;5005548;28;19936;-76
2021/12/10 13:25:59;;;;;;;;;;;2.70;95.80;;;;;;5002622;28;19925;-76
2021/12/10 13:28:26;;;;;;;;;;;2.70;95.80;;;;;;4998558;28;19933;-76
2021/12/10 13:30:54;;;;;;;;;;;2.70;95.80;;;;;;5001942;28;19925;-76
2021/12/10 13:33:24;;;;;;;;;;;2.70;95.80;;;;;;5002264;28;19929;-75
2021/12/10 13:35:51;;;;;;;;;;;2.80;95.90;;;;;;5003678;28;20478;-75
2021/12/10 13:38:19;;;;;;;;;;;2.80;95.90;;;;;;5003027;28;19936;-75
2021/12/10 13:40:46;;;;;;;;;;;2.70;95.90;;;;;;5005257;28;19925;-75
2021/12/10 13:43:14;;;;;;;;;;;2.80;95.90;;;;;;5006810;28;20569;-75
2021/12/10 13:45:42;;;;;;;;;;;2.80;95.90;;;;;;5001705;28;20036;-73
2021/12/10 13:48:13;;;;;;;;;;;2.80;95.90;;;;;;5003353;28;19983;-75
2021/12/10 13:50:44;;;;;;;;;;;2.70;95.90;;;;;;5009619;28;20324;-75
2021/12/10 13:53:12;;;;;;;;;;;2.80;95.90;;;;;;5009249;28;20052;-75
2021/12/10 13:55:41;;;;;;;;;;;2.80;95.90;;;;;;5010337;28;19928;-75
2021/12/10 13:58:13;;;;;;;;;;;2.80;95.90;;;;;;5011477;28;19933;-74
2021/12/10 14:00:42;;;;;;;;;;;2.80;95.90;;;;;;5006137;28;20368;-74
2021/12/10 14:03:09;;;;;;;;;;;2.80;95.80;;;;;;5008666;28;19933;-74
2021/12/10 14:05:37;;;;;;;;;;;2.80;95.80;;;;;;5009723;28;19931;-75
2021/12/10 14:08:08;;;;;;;;;;;2.80;96.20;;;;;;5007695;28;19925;-75
2021/12/10 14:10:35;;;;;;;;;;;2.80;95.90;;;;;;5010352;28;20343;-74
2021/12/10 14:13:03;;;;;;;;;;;2.80;95.90;;;;;;5009485;28;19925;-74
2021/12/10 14:15:40;;;;;;;;;;;2.80;95.90;;;;;;5003322;28;19921;-74
2021/12/10 14:18:10;;;;;;;;;;;2.80;95.90;;;;;;5009157;28;20019;-75
2021/12/10 14:20:40;;;;;;;;;;;2.80;95.90;;;;;;5003997;28;20363;-75
2021/12/10 14:23:09;;;;;;;;;;;2.80;95.90;;;;;;5004904;28;19965;-75
2021/12/10 14:25:37;;;;;;;;;;;2.80;95.90;;;;;;5004922;28;19930;-74
2021/12/10 14:28:07;;;;;;;;;;;2.80;95.90;;;;;;5006530;28;19925;-75
2021/12/10 14:30:36;;;;;;;;;;;2.80;95.90;;;;;;5003458;28;19929;-74
2021/12/10 14:33:05;;;;;;;;;;;2.90;95.90;;;;;;5005845;28;20281;-74
2021/12/10 14:35:38;;;;;;;;;;;2.80;95.90;;;;;;5005721;28;20384;-74
2021/12/10 14:38:07;;;;;;;;;;;2.90;95.90;;;;;;5005970;28;19922;-74
2021/12/10 14:40:40;;;;;;;;;;;2.80;95.90;;;;;;5003975;28;19929;-74
2021/12/10 14:43:14;;;;;;;;;;;2.90;96.00;;;;;;5005017;28;19933;-75
2021/12/10 14:46:11;;;;;;;;;;;2.90;96.00;;;;;;4998730;28;21148;-75
2021/12/10 14:48:38;;;;;;;;;;;2.80;96.00;;;;;;4946787;28;19933;-74